Time;durP1;ratioP1;P1;durP2;ratioP2;P2;SDS_P1;SDS_P2;PMS_P1;PMS_P2;Temp;Humidity;BMP_temperature;BMP_pressure;BME280_temperature;BME280_humidity;BME280_pressure;Samples;Min_cycle;Max_cycle;Signal;HPM_P1;HPM_P2
2022/02/15 00:00:15;;;;;;;0.50;0.50;;;;;;;;;;4993083;28;20421;-61
2022/02/15 00:02:41;;;;;;;0.50;0.50;;;;;;;;;;4994426;28;20448;-58
2022/02/15 00:05:07;;;;;;;0.50;0.50;;;;;;;;;;4994429;28;20186;-61
2022/02/15 00:07:35;;;;;;;0.40;0.40;;;;;;;;;;4994728;28;20471;-61
2022/02/15 00:10:01;;;;;;;0.47;0.47;;;;;;;;;;4996345;28;20174;-59
2022/02/15 00:12:27;;;;;;;0.50;0.50;;;;;;;;;;4994013;28;20213;-60
2022/02/15 00:14:53;;;;;;;0.43;0.43;;;;;;;;;;4994301;28;20182;-57
2022/02/15 00:17:19;;;;;;;0.40;0.40;;;;;;;;;;4994280;28;20408;-60
2022/02/15 00:19:45;;;;;;;0.50;0.50;;;;;;;;;;4994402;28;20405;-60
2022/02/15 00:22:10;;;;;;;0.60;0.60;;;;;;;;;;4993818;28;20427;-61
2022/02/15 00:24:36;;;;;;;0.50;0.50;;;;;;;;;;4994127;28;20987;-59
2022/02/15 00:27:02;;;;;;;0.40;0.40;;;;;;;;;;4993807;28;21007;-61
2022/02/15 00:29:28;;;;;;;0.40;0.40;;;;;;;;;;4993920;28;20412;-56
2022/02/15 00:31:54;;;;;;;0.50;0.50;;;;;;;;;;4993678;28;20170;-60
2022/02/15 00:34:20;;;;;;;0.50;0.50;;;;;;;;;;4993811;28;20428;-58
2022/02/15 00:36:46;;;;;;;0.50;0.50;;;;;;;;;;4993761;28;20416;-58
2022/02/15 00:39:12;;;;;;;0.40;0.40;;;;;;;;;;4993686;28;20414;-61
2022/02/15 00:41:38;;;;;;;0.50;0.50;;;;;;;;;;4993538;28;20404;-60
2022/02/15 00:44:04;;;;;;;0.40;0.40;;;;;;;;;;4993706;28;20780;-60
2022/02/15 00:46:30;;;;;;;0.43;0.43;;;;;;;;;;4993636;28;20519;-61
2022/02/15 00:48:56;;;;;;;0.40;0.40;;;;;;;;;;4993642;28;20406;-61
2022/02/15 00:51:22;;;;;;;0.40;0.40;;;;;;;;;;4993238;28;20398;-60
2022/02/15 00:53:48;;;;;;;0.40;0.40;;;;;;;;;;4993558;28;20423;-61
2022/02/15 00:56:14;;;;;;;0.40;0.40;;;;;;;;;;4993501;28;20404;-61
2022/02/15 00:58:40;;;;;;;0.40;0.40;;;;;;;;;;4993340;28;20419;-61
2022/02/15 01:01:06;;;;;;;0.50;0.50;;;;;;;;;;4993170;28;20474;-59
2022/02/15 01:03:32;;;;;;;0.40;0.40;;;;;;;;;;4993251;28;20432;-61
2022/02/15 01:05:59;;;;;;;0.50;0.50;;;;;;;;;;4992799;28;20474;-58
2022/02/15 01:08:25;;;;;;;0.40;0.40;;;;;;;;;;4993134;28;20956;-60
2022/02/15 01:10:51;;;;;;;0.50;0.50;;;;;;;;;;4992646;28;20184;-60
2022/02/15 01:13:17;;;;;;;0.50;0.50;;;;;;;;;;4993965;28;20455;-61
2022/02/15 01:15:43;;;;;;;0.50;0.50;;;;;;;;;;4993215;28;20200;-61
2022/02/15 01:18:09;;;;;;;0.40;0.40;;;;;;;;;;4993099;28;20626;-59
2022/02/15 01:20:35;;;;;;;0.50;0.50;;;;;;;;;;4992722;28;20260;-59
2022/02/15 01:23:01;;;;;;;0.50;0.50;;;;;;;;;;4992862;28;20802;-61
2022/02/15 01:25:28;;;;;;;0.47;0.47;;;;;;;;;;4992893;28;20415;-61
2022/02/15 01:27:54;;;;;;;0.50;0.50;;;;;;;;;;4992805;28;20560;-61
2022/02/15 01:30:20;;;;;;;0.40;0.40;;;;;;;;;;4991281;28;20192;-61
2022/02/15 01:32:47;;;;;;;0.50;0.50;;;;;;;;;;4992743;28;20211;-61
2022/02/15 01:35:13;;;;;;;0.50;0.50;;;;;;;;;;4992555;28;20177;-61
2022/02/15 01:37:39;;;;;;;0.50;0.50;;;;;;;;;;4992961;28;20185;-62
2022/02/15 01:40:05;;;;;;;0.50;0.50;;;;;;;;;;4992748;28;20721;-60
2022/02/15 01:42:31;;;;;;;0.30;0.30;;;;;;;;;;4991189;28;20448;-60
2022/02/15 01:44:57;;;;;;;0.50;0.50;;;;;;;;;;4992587;28;20187;-60
2022/02/15 01:47:30;;;;;;;0.50;0.50;;;;;;;;;;4992506;28;20500;-61
2022/02/15 01:49:58;;;;;;;0.50;0.50;;;;;;;;;;4992239;28;20447;-61
2022/02/15 01:52:24;;;;;;;0.43;0.43;;;;;;;;;;4992138;28;20228;-60
2022/02/15 01:54:51;;;;;;;0.50;0.50;;;;;;;;;;4992633;28;20266;-61
2022/02/15 01:57:18;;;;;;;0.50;0.50;;;;;;;;;;4992377;28;20208;-60
2022/02/15 01:59:45;;;;;;;0.40;0.40;;;;;;;;;;4992375;28;20187;-61
2022/02/15 02:02:11;;;;;;;0.50;0.50;;;;;;;;;;4992047;28;20187;-61
2022/02/15 02:07:21;;;;;;;0.40;0.40;;;;;;;;;;4992377;28;20312;-60
2022/02/15 02:09:47;;;;;;;0.50;0.50;;;;;;;;;;4992119;28;20204;-61
2022/02/15 02:12:13;;;;;;;0.40;0.40;;;;;;;;;;4991788;28;20415;-61
2022/02/15 02:14:39;;;;;;;0.50;0.50;;;;;;;;;;4992177;28;20405;-61
2022/02/15 02:17:05;;;;;;;0.50;0.50;;;;;;;;;;4991809;28;20619;-61
2022/02/15 02:19:31;;;;;;;0.50;0.50;;;;;;;;;;4991989;28;20903;-61
2022/02/15 02:22:01;;;;;;;0.50;0.50;;;;;;;;;;4991065;28;20422;-61
2022/02/15 02:24:27;;;;;;;0.50;0.50;;;;;;;;;;4992223;28;20867;-60
2022/02/15 02:26:53;;;;;;;0.50;0.50;;;;;;;;;;4991979;28;20338;-61
2022/02/15 02:29:19;;;;;;;0.40;0.40;;;;;;;;;;4991975;28;20478;-61
2022/02/15 02:31:45;;;;;;;0.50;0.50;;;;;;;;;;4991821;28;20704;-60
2022/02/15 02:34:11;;;;;;;0.50;0.50;;;;;;;;;;4991837;28;20438;-61
2022/02/15 02:36:44;;;;;;;0.50;0.50;;;;;;;;;;4990870;28;20556;-61
2022/02/15 02:39:10;;;;;;;0.45;0.45;;;;;;;;;;4991634;28;20817;-61
2022/02/15 02:41:36;;;;;;;0.40;0.40;;;;;;;;;;4989766;28;20199;-61
2022/02/15 02:44:02;;;;;;;0.50;0.50;;;;;;;;;;4991841;28;20561;-61
2022/02/15 02:46:29;;;;;;;0.50;0.50;;;;;;;;;;4991846;28;20410;-61
2022/02/15 02:48:55;;;;;;;0.40;0.40;;;;;;;;;;4991515;28;20466;-61
2022/02/15 02:51:21;;;;;;;0.50;0.50;;;;;;;;;;4991596;28;20277;-60
2022/02/15 02:53:47;;;;;;;0.47;0.47;;;;;;;;;;4991790;28;20522;-60
2022/02/15 02:56:14;;;;;;;0.50;0.50;;;;;;;;;;4991729;28;20248;-61
2022/02/15 02:58:40;;;;;;;0.40;0.40;;;;;;;;;;4991747;28;20423;-60
2022/02/15 03:01:05;;;;;;;0.50;0.50;;;;;;;;;;4990269;28;20184;-61
2022/02/15 03:03:31;;;;;;;0.40;0.40;;;;;;;;;;4991543;28;20209;-61
2022/02/15 03:05:58;;;;;;;0.50;0.50;;;;;;;;;;4991761;28;20424;-61
2022/02/15 03:08:24;;;;;;;0.45;0.45;;;;;;;;;;4991574;28;20519;-61
2022/02/15 03:10:50;;;;;;;0.50;0.50;;;;;;;;;;4991332;28;20651;-61
2022/02/15 03:13:16;;;;;;;0.50;0.50;;;;;;;;;;4991524;28;20472;-61
2022/02/15 03:15:42;;;;;;;0.50;0.50;;;;;;;;;;4991515;28;20406;-61
2022/02/15 03:18:08;;;;;;;0.50;0.50;;;;;;;;;;4991471;28;20413;-61
2022/02/15 03:20:34;;;;;;;0.50;0.50;;;;;;;;;;4991658;28;20961;-61
2022/02/15 03:23:00;;;;;;;0.50;0.50;;;;;;;;;;4991568;28;20197;-60
2022/02/15 03:25:26;;;;;;;0.50;0.50;;;;;;;;;;4991530;28;20416;-61
2022/02/15 03:27:52;;;;;;;0.50;0.50;;;;;;;;;;4994771;28;20465;-61
2022/02/15 03:30:17;;;;;;;0.50;0.50;;;;;;;;;;4991764;28;20409;-58
2022/02/15 03:32:43;;;;;;;0.50;0.50;;;;;;;;;;4991342;28;20447;-58
2022/02/15 03:35:10;;;;;;;0.50;0.50;;;;;;;;;;4995098;28;20416;-59
2022/02/15 03:37:36;;;;;;;0.50;0.50;;;;;;;;;;4995026;28;20412;-60
2022/02/15 03:40:02;;;;;;;0.50;0.50;;;;;;;;;;4994881;28;20547;-60
2022/02/15 03:45:13;;;;;;;0.50;0.50;;;;;;;;;;4994969;28;20707;-60
2022/02/15 03:47:40;;;;;;;0.50;0.50;;;;;;;;;;4994771;28;20234;-60
2022/02/15 03:50:06;;;;;;;0.50;0.50;;;;;;;;;;4994786;28;20443;-60
2022/02/15 03:52:32;;;;;;;0.40;0.40;;;;;;;;;;4994595;28;20276;-61
2022/02/15 03:54:58;;;;;;;0.50;0.50;;;;;;;;;;4994690;28;20260;-58
2022/02/15 03:57:24;;;;;;;0.50;0.50;;;;;;;;;;4994814;28;20451;-61
2022/02/15 03:59:50;;;;;;;0.43;0.43;;;;;;;;;;4994359;28;20404;-61
2022/02/15 04:02:15;;;;;;;0.50;0.50;;;;;;;;;;4994208;28;20428;-58
2022/02/15 04:04:41;;;;;;;0.50;0.50;;;;;;;;;;4994744;28;20415;-62
2022/02/15 04:07:07;;;;;;;0.40;0.40;;;;;;;;;;4994461;28;20475;-61
2022/02/15 04:09:34;;;;;;;0.50;0.50;;;;;;;;;;4994325;28;20916;-61
2022/02/15 04:12:00;;;;;;;0.50;0.50;;;;;;;;;;4993971;28;20178;-61
2022/02/15 04:14:26;;;;;;;0.40;0.40;;;;;;;;;;4994121;28;20336;-61
2022/02/15 04:16:52;;;;;;;0.40;0.40;;;;;;;;;;4994281;28;20487;-61
2022/02/15 04:19:18;;;;;;;0.40;0.40;;;;;;;;;;4992996;28;20425;-60
2022/02/15 04:21:44;;;;;;;0.40;0.40;;;;;;;;;;4994062;28;20424;-61
2022/02/15 04:24:10;;;;;;;0.50;0.50;;;;;;;;;;4994134;28;20678;-61
2022/02/15 04:26:36;;;;;;;0.50;0.50;;;;;;;;;;4993982;28;20402;-61
2022/02/15 04:29:02;;;;;;;0.50;0.50;;;;;;;;;;4993975;28;20208;-61
2022/02/15 04:31:28;;;;;;;0.45;0.45;;;;;;;;;;4993698;28;20234;-61
2022/02/15 04:33:54;;;;;;;0.50;0.50;;;;;;;;;;4993924;28;20208;-61
2022/02/15 04:36:20;;;;;;;0.40;0.40;;;;;;;;;;4994030;28;20483;-61
2022/02/15 04:38:46;;;;;;;0.50;0.50;;;;;;;;;;4993720;28;20407;-60
2022/02/15 04:41:12;;;;;;;0.50;0.50;;;;;;;;;;4993378;28;20445;-61
2022/02/15 04:43:38;;;;;;;0.50;0.50;;;;;;;;;;4993535;28;20436;-61
2022/02/15 04:46:04;;;;;;;0.50;0.50;;;;;;;;;;4992930;28;20412;-61
2022/02/15 04:48:30;;;;;;;0.50;0.50;;;;;;;;;;4993544;28;20468;-61
2022/02/15 04:50:56;;;;;;;0.50;0.50;;;;;;;;;;4993350;28;20415;-61
2022/02/15 04:53:22;;;;;;;0.40;0.40;;;;;;;;;;4993561;28;20218;-61
2022/02/15 04:55:48;;;;;;;0.50;0.50;;;;;;;;;;4993486;28;20410;-60
2022/02/15 04:58:14;;;;;;;0.50;0.50;;;;;;;;;;4993396;28;20428;-61
2022/02/15 05:00:41;;;;;;;0.40;0.40;;;;;;;;;;4993186;28;20185;-62
2022/02/15 05:03:07;;;;;;;0.50;0.50;;;;;;;;;;4993272;28;20811;-61
2022/02/15 05:05:33;;;;;;;0.50;0.50;;;;;;;;;;4993423;28;20645;-61
2022/02/15 05:07:59;;;;;;;0.50;0.50;;;;;;;;;;4993280;28;20201;-61
2022/02/15 05:10:25;;;;;;;0.50;0.50;;;;;;;;;;4992980;28;20436;-61
2022/02/15 05:12:51;;;;;;;0.50;0.50;;;;;;;;;;4992934;28;20598;-61
2022/02/15 05:15:17;;;;;;;0.50;0.50;;;;;;;;;;4993079;28;20183;-61
2022/02/15 05:17:46;;;;;;;0.40;0.40;;;;;;;;;;4993117;28;20421;-61
2022/02/15 05:20:14;;;;;;;0.50;0.50;;;;;;;;;;4992741;28;20807;-61
2022/02/15 05:22:40;;;;;;;0.40;0.40;;;;;;;;;;4992879;28;20205;-61
2022/02/15 05:25:06;;;;;;;0.45;0.45;;;;;;;;;;4992877;28;20181;-61
2022/02/15 05:27:32;;;;;;;0.50;0.50;;;;;;;;;;4992751;28;20312;-61
2022/02/15 05:29:58;;;;;;;0.50;0.50;;;;;;;;;;4992722;28;20193;-61
2022/02/15 05:32:24;;;;;;;0.50;0.50;;;;;;;;;;4992632;28;20688;-61
2022/02/15 05:34:50;;;;;;;0.50;0.50;;;;;;;;;;4992678;28;20408;-60
2022/02/15 05:37:16;;;;;;;0.50;0.50;;;;;;;;;;4992751;28;20420;-61
2022/02/15 05:39:42;;;;;;;0.50;0.50;;;;;;;;;;4991114;28;20434;-60
2022/02/15 05:42:08;;;;;;;0.50;0.50;;;;;;;;;;4992371;28;20472;-61
2022/02/15 05:44:34;;;;;;;0.50;0.50;;;;;;;;;;4992768;28;20423;-60
2022/02/15 05:46:59;;;;;;;0.50;0.50;;;;;;;;;;4992570;28;20213;-61
2022/02/15 05:49:25;;;;;;;0.60;0.60;;;;;;;;;;4992614;28;20807;-61
2022/02/15 05:51:51;;;;;;;0.50;0.50;;;;;;;;;;4992292;28;20913;-61
2022/02/15 05:54:17;;;;;;;0.40;0.40;;;;;;;;;;4992094;28;20828;-61
2022/02/15 05:56:43;;;;;;;0.50;0.50;;;;;;;;;;4992370;28;20216;-59
2022/02/15 05:59:09;;;;;;;0.50;0.50;;;;;;;;;;4992388;28;20177;-60
2022/02/15 06:01:35;;;;;;;0.50;0.50;;;;;;;;;;4992204;28;20413;-61
2022/02/15 06:04:10;;;;;;;0.50;0.50;;;;;;;;;;4992442;28;20432;-61
2022/02/15 06:06:36;;;;;;;0.50;0.50;;;;;;;;;;4991668;28;20924;-60
2022/02/15 06:09:02;;;;;;;0.50;0.50;;;;;;;;;;4992032;28;20235;-59
2022/02/15 06:11:28;;;;;;;0.50;0.50;;;;;;;;;;4992036;28;20177;-61
2022/02/15 06:13:55;;;;;;;0.40;0.40;;;;;;;;;;4992028;28;20204;-62
2022/02/15 06:16:24;;;;;;;0.50;0.50;;;;;;;;;;4992155;28;20409;-61
2022/02/15 06:18:51;;;;;;;0.43;0.43;;;;;;;;;;4992161;28;20185;-62
2022/02/15 06:21:17;;;;;;;0.40;0.40;;;;;;;;;;4991746;28;20173;-61
2022/02/15 06:23:43;;;;;;;0.50;0.50;;;;;;;;;;4992952;28;20205;-59
2022/02/15 06:26:09;;;;;;;0.40;0.40;;;;;;;;;;4992359;28;20182;-60
2022/02/15 06:28:35;;;;;;;0.40;0.40;;;;;;;;;;4992506;28;20816;-59
2022/02/15 06:31:01;;;;;;;0.50;0.50;;;;;;;;;;4991894;28;20181;-61
2022/02/15 06:33:27;;;;;;;0.50;0.50;;;;;;;;;;4991894;28;20427;-60
2022/02/15 06:35:53;;;;;;;0.50;0.50;;;;;;;;;;4992019;28;20411;-61
2022/02/15 06:38:19;;;;;;;0.50;0.50;;;;;;;;;;4992094;28;20420;-60
2022/02/15 06:40:45;;;;;;;0.50;0.50;;;;;;;;;;4991664;28;20208;-61
2022/02/15 06:43:11;;;;;;;0.60;0.60;;;;;;;;;;4993176;28;20517;-61
2022/02/15 06:45:37;;;;;;;0.50;0.50;;;;;;;;;;4992667;28;20448;-61
2022/02/15 06:48:04;;;;;;;0.50;0.50;;;;;;;;;;4995735;28;20529;-58
2022/02/15 06:50:30;;;;;;;0.50;0.50;;;;;;;;;;4992093;28;20181;-58
2022/02/15 06:52:56;;;;;;;0.40;0.40;;;;;;;;;;4992405;28;20198;-59
2022/02/15 06:55:22;;;;;;;0.50;0.50;;;;;;;;;;4991378;28;20257;-61
2022/02/15 06:57:48;;;;;;;0.50;0.50;;;;;;;;;;4991240;28;20432;-59
2022/02/15 07:00:14;;;;;;;0.50;0.50;;;;;;;;;;4991234;28;20520;-57
2022/02/15 07:02:40;;;;;;;0.40;0.40;;;;;;;;;;4991398;28;20433;-59
2022/02/15 07:05:06;;;;;;;0.50;0.50;;;;;;;;;;4990262;28;20243;-61
2022/02/15 07:07:33;;;;;;;0.40;0.40;;;;;;;;;;4991666;28;20521;-57
2022/02/15 07:09:59;;;;;;;0.50;0.50;;;;;;;;;;4994939;28;20260;-61
2022/02/15 07:12:25;;;;;;;0.50;0.50;;;;;;;;;;4994579;28;20309;-61
2022/02/15 07:14:51;;;;;;;0.50;0.50;;;;;;;;;;5010104;23;20542;-63
2022/02/15 07:17:17;;;;;;;0.50;0.50;;;;;;;;;;4994468;28;20424;-62
2022/02/15 07:19:43;;;;;;;0.50;0.50;;;;;;;;;;4995028;28;20964;-62
2022/02/15 07:22:09;;;;;;;0.40;0.40;;;;;;;;;;4994949;28;20822;-63
2022/02/15 07:24:36;;;;;;;0.50;0.50;;;;;;;;;;4994116;28;20966;-63
2022/02/15 07:27:02;;;;;;;0.50;0.50;;;;;;;;;;4994947;28;20420;-60
2022/02/15 07:29:28;;;;;;;0.43;0.43;;;;;;;;;;4994939;28;20170;-63
2022/02/15 07:31:54;;;;;;;0.50;0.50;;;;;;;;;;4994235;28;20184;-62
2022/02/15 07:34:20;;;;;;;0.50;0.50;;;;;;;;;;4994995;28;20347;-63
2022/02/15 07:36:46;;;;;;;0.43;0.43;;;;;;;;;;4994697;28;20412;-63
2022/02/15 07:39:12;;;;;;;0.50;0.50;;;;;;;;;;4994956;28;20500;-63
2022/02/15 07:41:38;;;;;;;0.50;0.50;;;;;;;;;;4994375;28;20591;-62
2022/02/15 07:44:04;;;;;;;0.47;0.47;;;;;;;;;;4992707;28;20464;-63
2022/02/15 07:46:30;;;;;;;0.50;0.50;;;;;;;;;;4994500;28;20284;-63
2022/02/15 07:48:56;;;;;;;0.50;0.50;;;;;;;;;;4994513;28;20253;-64
2022/02/15 07:51:22;;;;;;;0.47;0.47;;;;;;;;;;4993436;28;20604;-62
2022/02/15 07:53:48;;;;;;;0.50;0.50;;;;;;;;;;4992797;28;20784;-62
2022/02/15 07:56:14;;;;;;;0.50;0.50;;;;;;;;;;4994255;28;21016;-61
2022/02/15 07:58:40;;;;;;;0.40;0.40;;;;;;;;;;4994694;28;20965;-62
2022/02/15 08:01:06;;;;;;;0.40;0.40;;;;;;;;;;4994001;28;20920;-62
2022/02/15 08:03:32;;;;;;;0.50;0.50;;;;;;;;;;4992718;28;21044;-64
2022/02/15 08:05:58;;;;;;;0.43;0.43;;;;;;;;;;4994278;28;20425;-63
2022/02/15 08:08:25;;;;;;;0.50;0.50;;;;;;;;;;4993609;28;20329;-63
2022/02/15 08:10:51;;;;;;;0.47;0.47;;;;;;;;;;4994389;28;20967;-64
2022/02/15 08:13:21;;;;;;;0.50;0.50;;;;;;;;;;4993565;28;20228;-63
2022/02/15 08:15:49;;;;;;;0.50;0.50;;;;;;;;;;4994301;28;20183;-62
2022/02/15 08:18:15;;;;;;;0.40;0.40;;;;;;;;;;4994353;28;20197;-62
2022/02/15 08:20:41;;;;;;;0.50;0.50;;;;;;;;;;4992762;28;20240;-63
2022/02/15 08:23:09;;;;;;;0.50;0.50;;;;;;;;;;4994148;28;20231;-62
2022/02/15 08:25:35;;;;;;;0.43;0.43;;;;;;;;;;4993549;28;20239;-63
2022/02/15 08:28:01;;;;;;;0.50;0.50;;;;;;;;;;4994103;28;20280;-63
2022/02/15 08:30:27;;;;;;;0.50;0.50;;;;;;;;;;4993811;28;20892;-63
2022/02/15 08:32:53;;;;;;;0.40;0.40;;;;;;;;;;4992723;28;20483;-63
2022/02/15 08:35:20;;;;;;;0.50;0.50;;;;;;;;;;4993458;28;20433;-63
2022/02/15 08:37:46;;;;;;;0.50;0.50;;;;;;;;;;4993732;28;20406;-63
2022/02/15 08:40:12;;;;;;;0.50;0.50;;;;;;;;;;4993600;28;20201;-64
2022/02/15 08:42:39;;;;;;;0.50;0.50;;;;;;;;;;4993868;28;20233;-64
2022/02/15 08:45:07;;;;;;;0.50;0.50;;;;;;;;;;4993376;28;20268;-63
2022/02/15 08:47:33;;;;;;;0.60;0.60;;;;;;;;;;4993300;28;20206;-62
2022/02/15 08:49:59;;;;;;;0.57;0.57;;;;;;;;;;4993674;28;20585;-63
2022/02/15 08:52:26;;;;;;;0.50;0.50;;;;;;;;;;4993443;28;20618;-63
2022/02/15 08:54:53;;;;;;;0.50;0.50;;;;;;;;;;4992114;28;20516;-64
2022/02/15 08:57:20;;;;;;;0.50;0.50;;;;;;;;;;4993116;28;20607;-64
2022/02/15 08:59:46;;;;;;;0.50;0.50;;;;;;;;;;4993169;28;20182;-64
2022/02/15 09:02:12;;;;;;;0.50;0.50;;;;;;;;;;4993197;28;20182;-63
2022/02/15 09:04:38;;;;;;;0.50;0.50;;;;;;;;;;4993137;28;20248;-62
2022/02/15 09:07:04;;;;;;;0.50;0.50;;;;;;;;;;4993156;28;20905;-64
2022/02/15 09:09:30;;;;;;;0.50;0.50;;;;;;;;;;4992786;28;20184;-62
2022/02/15 09:11:56;;;;;;;0.50;0.50;;;;;;;;;;4992892;28;20175;-64
2022/02/15 09:14:22;;;;;;;0.52;0.52;;;;;;;;;;4992962;28;20440;-62
2022/02/15 09:16:48;;;;;;;0.43;0.43;;;;;;;;;;4992776;28;20181;-63
2022/02/15 09:19:14;;;;;;;0.50;0.50;;;;;;;;;;4992915;28;20447;-63
2022/02/15 09:21:40;;;;;;;0.50;0.50;;;;;;;;;;4992430;28;20409;-62
2022/02/15 09:24:09;;;;;;;0.50;0.50;;;;;;;;;;4992985;28;20197;-63
2022/02/15 09:26:35;;;;;;;0.50;0.50;;;;;;;;;;4992859;28;20414;-64
2022/02/15 09:29:01;;;;;;;0.50;0.50;;;;;;;;;;4992893;28;20238;-63
2022/02/15 09:31:27;;;;;;;0.50;0.50;;;;;;;;;;4991956;28;20249;-64
2022/02/15 09:33:53;;;;;;;0.50;0.50;;;;;;;;;;4992625;28;20194;-64
2022/02/15 09:36:20;;;;;;;0.40;0.40;;;;;;;;;;4992806;28;20186;-64
2022/02/15 09:38:46;;;;;;;0.40;0.40;;;;;;;;;;4992629;28;20179;-63
2022/02/15 09:41:12;;;;;;;0.40;0.40;;;;;;;;;;4992558;28;20562;-59
2022/02/15 09:43:39;;;;;;;0.40;0.40;;;;;;;;;;4990761;28;20243;-63
2022/02/15 09:46:09;;;;;;;0.40;0.40;;;;;;;;;;4992386;28;20225;-61
2022/02/15 09:48:36;;;;;;;0.40;0.40;;;;;;;;;;4992173;28;20210;-62
2022/02/15 09:51:04;;;;;;;0.40;0.40;;;;;;;;;;4992327;28;20177;-61
2022/02/15 09:53:29;;;;;;;0.40;0.40;;;;;;;;;;4993260;28;20216;-64
2022/02/15 09:55:55;;;;;;;0.40;0.40;;;;;;;;;;4992378;28;20638;-62
2022/02/15 09:58:21;;;;;;;0.40;0.40;;;;;;;;;;4992672;28;20429;-62
2022/02/15 10:00:48;;;;;;;0.40;0.40;;;;;;;;;;4991761;28;20420;-62
2022/02/15 10:03:15;;;;;;;0.50;0.50;;;;;;;;;;4992222;28;20459;-61
2022/02/15 10:05:41;;;;;;;0.50;0.50;;;;;;;;;;4991532;28;20197;-63
2022/02/15 10:08:07;;;;;;;0.50;0.50;;;;;;;;;;4991886;28;20200;-63
2022/02/15 10:10:34;;;;;;;0.50;0.50;;;;;;;;;;4990921;28;20277;-63
2022/02/15 10:13:00;;;;;;;0.40;0.40;;;;;;;;;;4991839;28;20417;-63
2022/02/15 10:15:30;;;;;;;0.40;0.40;;;;;;;;;;4992026;28;20192;-62
2022/02/15 10:18:06;;;;;;;0.50;0.50;;;;;;;;;;4992095;28;20406;-64
2022/02/15 10:20:33;;;;;;;0.40;0.40;;;;;;;;;;4991755;28;20657;-63
2022/02/15 10:23:31;;;;;;;0.50;0.50;;;;;;;;;;4991704;28;20598;-62
2022/02/15 10:25:57;;;;;;;0.47;0.47;;;;;;;;;;4948365;28;20561;-63
2022/02/15 10:28:24;;;;;;;0.40;0.40;;;;;;;;;;4991598;28;20198;-63
2022/02/15 10:30:52;;;;;;;0.40;0.40;;;;;;;;;;4991715;28;20549;-62
2022/02/15 10:33:20;;;;;;;0.40;0.40;;;;;;;;;;4991262;28;20197;-62
2022/02/15 10:36:02;;;;;;;0.40;0.40;;;;;;;;;;4992068;28;20179;-62
2022/02/15 10:38:28;;;;;;;0.40;0.40;;;;;;;;;;4991675;28;20210;-63
2022/02/15 10:41:13;;;;;;;0.40;0.40;;;;;;;;;;4991828;28;20209;-62
2022/02/15 10:43:43;;;;;;;0.40;0.40;;;;;;;;;;4993456;28;20425;-63
2022/02/15 10:46:13;;;;;;;0.50;0.50;;;;;;;;;;4995674;28;20202;-63
2022/02/15 10:48:39;;;;;;;0.40;0.40;;;;;;;;;;4995747;28;20214;-63
2022/02/15 10:51:05;;;;;;;0.50;0.50;;;;;;;;;;4995705;28;20565;-62
2022/02/15 10:53:32;;;;;;;0.40;0.40;;;;;;;;;;4995987;28;20190;-63
2022/02/15 10:55:58;;;;;;;0.50;0.50;;;;;;;;;;4995360;28;20405;-63
2022/02/15 10:58:24;;;;;;;0.50;0.50;;;;;;;;;;4995489;28;20197;-63
2022/02/15 11:00:51;;;;;;;0.50;0.50;;;;;;;;;;4995583;28;20549;-61
2022/02/15 11:03:22;;;;;;;0.43;0.43;;;;;;;;;;4995762;28;20198;-61
2022/02/15 11:05:49;;;;;;;0.50;0.50;;;;;;;;;;4994328;28;20235;-61
2022/02/15 11:08:16;;;;;;;0.50;0.50;;;;;;;;;;4994892;28;20614;-62
2022/02/15 11:10:48;;;;;;;0.50;0.50;;;;;;;;;;4995064;28;20756;-62
2022/02/15 11:13:14;;;;;;;0.50;0.50;;;;;;;;;;4995183;28;20175;-63
2022/02/15 11:15:41;;;;;;;0.47;0.47;;;;;;;;;;4995355;28;20204;-63
2022/02/15 11:18:10;;;;;;;0.40;0.40;;;;;;;;;;4994636;28;20175;-63
2022/02/15 11:20:56;;;;;;;0.40;0.40;;;;;;;;;;4995021;28;20553;-63
2022/02/15 11:23:26;;;;;;;0.45;0.45;;;;;;;;;;4995224;28;20237;-63
2022/02/15 11:26:07;;;;;;;0.50;0.50;;;;;;;;;;4995028;28;20170;-63
2022/02/15 11:28:34;;;;;;;0.50;0.50;;;;;;;;;;4995085;28;20744;-64
2022/02/15 11:31:01;;;;;;;0.50;0.50;;;;;;;;;;4994560;28;20289;-63
2022/02/15 11:33:28;;;;;;;0.40;0.40;;;;;;;;;;4994893;28;20199;-61
2022/02/15 11:35:55;;;;;;;0.40;0.40;;;;;;;;;;4994973;28;20178;-62
2022/02/15 11:38:22;;;;;;;0.50;0.50;;;;;;;;;;4995047;28;20175;-63
2022/02/15 11:41:01;;;;;;;0.50;0.50;;;;;;;;;;4994150;28;20174;-63
2022/02/15 11:43:27;;;;;;;0.40;0.40;;;;;;;;;;4994742;28;20619;-62
2022/02/15 11:45:53;;;;;;;0.50;0.50;;;;;;;;;;4994670;28;20181;-62
2022/02/15 11:48:19;;;;;;;0.40;0.40;;;;;;;;;;4994559;28;20277;-64
2022/02/15 11:50:49;;;;;;;0.40;0.40;;;;;;;;;;4994408;28;20270;-63
2022/02/15 11:53:20;;;;;;;0.50;0.50;;;;;;;;;;4994636;28;20493;-63
2022/02/15 11:55:47;;;;;;;0.50;0.50;;;;;;;;;;4993326;28;20170;-62
2022/02/15 11:58:14;;;;;;;0.50;0.50;;;;;;;;;;4994618;28;20241;-64
2022/02/15 12:00:41;;;;;;;0.40;0.40;;;;;;;;;;4994197;28;20178;-63
2022/02/15 12:03:07;;;;;;;0.47;0.47;;;;;;;;;;4993773;28;20178;-63
2022/02/15 12:05:44;;;;;;;0.40;0.40;;;;;;;;;;4994659;28;20183;-61
2022/02/15 12:08:09;;;;;;;0.50;0.50;;;;;;;;;;4994427;28;20278;-64
2022/02/15 12:10:36;;;;;;;0.40;0.40;;;;;;;;;;4994282;28;20273;-63
2022/02/15 12:13:02;;;;;;;0.40;0.40;;;;;;;;;;4993996;28;20409;-63
2022/02/15 12:15:31;;;;;;;0.50;0.50;;;;;;;;;;4993429;28;20190;-62
2022/02/15 12:17:57;;;;;;;0.50;0.50;;;;;;;;;;4994431;28;20585;-61
2022/02/15 12:20:23;;;;;;;0.40;0.40;;;;;;;;;;4993823;28;20268;-62
2022/02/15 12:22:52;;;;;;;0.40;0.40;;;;;;;;;;4994065;28;20410;-61
2022/02/15 12:25:18;;;;;;;0.40;0.40;;;;;;;;;;4993518;28;20217;-63
2022/02/15 12:27:46;;;;;;;0.43;0.43;;;;;;;;;;4994110;28;20198;-61
2022/02/15 12:30:14;;;;;;;0.40;0.40;;;;;;;;;;4993923;28;20409;-62
2022/02/15 12:32:41;;;;;;;0.40;0.40;;;;;;;;;;4993957;28;20265;-62
2022/02/15 12:35:08;;;;;;;0.40;0.40;;;;;;;;;;4993114;28;20249;-63
2022/02/15 12:37:34;;;;;;;0.40;0.40;;;;;;;;;;4993728;28;20258;-62
2022/02/15 12:40:00;;;;;;;0.40;0.40;;;;;;;;;;4993706;28;20276;-63
2022/02/15 12:42:30;;;;;;;0.40;0.40;;;;;;;;;;4993630;28;20716;-62
2022/02/15 12:44:59;;;;;;;0.40;0.40;;;;;;;;;;4993575;28;20551;-62
2022/02/15 12:47:27;;;;;;;0.50;0.50;;;;;;;;;;4993086;28;20233;-61
2022/02/15 12:49:54;;;;;;;0.50;0.50;;;;;;;;;;4993504;28;20174;-62
2022/02/15 12:52:22;;;;;;;0.50;0.50;;;;;;;;;;4993441;28;20181;-61
2022/02/15 12:55:12;;;;;;;0.40;0.40;;;;;;;;;;4993452;28;20190;-63
2022/02/15 12:57:38;;;;;;;0.40;0.40;;;;;;;;;;4982476;28;20193;-62
2022/02/15 13:00:05;;;;;;;0.50;0.50;;;;;;;;;;4993673;28;20170;-62
2022/02/15 13:02:32;;;;;;;0.40;0.40;;;;;;;;;;4993414;28;20206;-62
2022/02/15 13:04:59;;;;;;;0.40;0.40;;;;;;;;;;4993351;28;20198;-63
2022/02/15 13:07:26;;;;;;;0.50;0.50;;;;;;;;;;4992667;28;20662;-62
2022/02/15 13:09:53;;;;;;;0.50;0.50;;;;;;;;;;4993130;28;20304;-62
2022/02/15 13:12:22;;;;;;;0.50;0.50;;;;;;;;;;4993044;28;20285;-62
2022/02/15 13:14:50;;;;;;;0.50;0.50;;;;;;;;;;5048051;23;20329;-62
2022/02/15 13:17:16;;;;;;;0.50;0.50;;;;;;;;;;4993176;28;20178;-60
2022/02/15 13:19:42;;;;;;;0.47;0.47;;;;;;;;;;4992824;28;20193;-61
2022/02/15 13:22:15;;;;;;;0.40;0.40;;;;;;;;;;4992608;28;20174;-64
2022/02/15 13:24:55;;;;;;;0.40;0.40;;;;;;;;;;4993008;28;20422;-64
2022/02/15 13:27:25;;;;;;;0.50;0.50;;;;;;;;;;4991534;28;20210;-63
2022/02/15 13:29:51;;;;;;;0.40;0.40;;;;;;;;;;4992970;28;20171;-63
2022/02/15 13:32:27;;;;;;;0.50;0.50;;;;;;;;;;4992696;28;20178;-62
2022/02/15 13:34:53;;;;;;;0.40;0.40;;;;;;;;;;4992755;28;20429;-63
2022/02/15 13:37:20;;;;;;;0.40;0.40;;;;;;;;;;4992597;28;20258;-63
2022/02/15 13:39:46;;;;;;;0.50;0.50;;;;;;;;;;4992637;28;20444;-62
2022/02/15 13:42:12;;;;;;;0.50;0.50;;;;;;;;;;4992465;28;20206;-63
2022/02/15 13:44:41;;;;;;;0.40;0.40;;;;;;;;;;4992447;28;20508;-63
2022/02/15 13:47:07;;;;;;;0.45;0.45;;;;;;;;;;4992268;28;20546;-63
2022/02/15 13:49:33;;;;;;;0.50;0.50;;;;;;;;;;4992378;28;20180;-63
2022/02/15 13:51:59;;;;;;;0.50;0.50;;;;;;;;;;4992339;28;20468;-63
2022/02/15 13:54:25;;;;;;;0.50;0.50;;;;;;;;;;4992281;28;20202;-63
2022/02/15 13:56:51;;;;;;;0.50;0.50;;;;;;;;;;4992921;28;20417;-63
2022/02/15 13:59:17;;;;;;;0.40;0.40;;;;;;;;;;4993228;28;20417;-63
2022/02/15 14:01:51;;;;;;;0.50;0.50;;;;;;;;;;4992117;28;20308;-63
2022/02/15 14:04:18;;;;;;;0.50;0.50;;;;;;;;;;4992267;28;20201;-62
2022/02/15 14:06:44;;;;;;;0.45;0.45;;;;;;;;;;4992338;28;20198;-63
2022/02/15 14:09:10;;;;;;;0.50;0.50;;;;;;;;;;4991934;28;20296;-63
2022/02/15 14:11:36;;;;;;;0.43;0.43;;;;;;;;;;4992222;28;20436;-62
2022/02/15 14:14:02;;;;;;;0.50;0.50;;;;;;;;;;4992460;28;20433;-62
2022/02/15 14:16:28;;;;;;;0.40;0.40;;;;;;;;;;4992702;28;20489;-63
2022/02/15 14:18:54;;;;;;;0.50;0.50;;;;;;;;;;4991533;28;20414;-62
2022/02/15 14:21:20;;;;;;;0.50;0.50;;;;;;;;;;4991916;28;20909;-63
2022/02/15 14:23:46;;;;;;;0.50;0.50;;;;;;;;;;4992041;28;20409;-63
2022/02/15 14:26:13;;;;;;;0.40;0.40;;;;;;;;;;4991999;28;20969;-63
2022/02/15 14:28:39;;;;;;;0.50;0.50;;;;;;;;;;4991861;28;20205;-63
2022/02/15 14:31:06;;;;;;;0.50;0.50;;;;;;;;;;4991781;28;20721;-63
2022/02/15 14:33:32;;;;;;;0.50;0.50;;;;;;;;;;4991793;28;20174;-64
2022/02/15 14:36:00;;;;;;;0.50;0.50;;;;;;;;;;4991980;28;20183;-62
2022/02/15 14:38:27;;;;;;;0.50;0.50;;;;;;;;;;4991751;28;20184;-62
2022/02/15 14:40:53;;;;;;;0.50;0.50;;;;;;;;;;4991606;28;20177;-62
2022/02/15 14:43:19;;;;;;;0.47;0.47;;;;;;;;;;4991740;28;20571;-63
2022/02/15 14:45:45;;;;;;;0.60;0.60;;;;;;;;;;4992052;28;20280;-63